Time;durP1;ratioP1;P1;durP2;ratioP2;P2;SDS_P1;SDS_P2;PMS_P1;PMS_P2;Temp;Humidity;BMP_temperature;BMP_pressure;BME280_temperature;BME280_humidity;BME280_pressure;Samples;Min_cycle;Max_cycle;Signal;HPM_P1;HPM_P2
2022/06/18 00:00:26;;;;;;;0.00;0.00;;;19.50;1.00;;;;;;5045499;28;20237;-67
2022/06/18 00:02:55;;;;;;;0.00;0.00;;;19.60;1.00;;;;;;5041278;28;20221;-68
2022/06/18 00:05:24;;;;;;;0.00;0.00;;;19.40;1.00;;;;;;5043411;28;20256;-67
2022/06/18 00:07:56;;;;;;;0.00;0.00;;;19.30;1.00;;;;;;5039744;28;20195;-67
2022/06/18 00:10:27;;;;;;;0.00;0.00;;;19.30;1.00;;;;;;5040778;28;20225;-67
2022/06/18 00:15:42;;;;;;;0.00;0.00;;;19.10;26.80;;;;;;5040803;28;20225;-67
2022/06/18 00:18:13;;;;;;;0.00;0.00;;;19.00;99.90;;;;;;5041257;28;20229;-67
2022/06/18 00:20:42;;;;;;;0.00;0.00;;;18.90;99.90;;;;;;5040564;28;20237;-67
2022/06/18 00:23:15;;;;;;;0.00;0.00;;;18.90;99.90;;;;;;5041149;28;20238;-67
2022/06/18 00:25:45;;;;;;;0.00;0.00;;;18.90;99.90;;;;;;5041297;28;20638;-67
2022/06/18 00:28:16;;;;;;;0.00;0.00;;;19.00;99.90;;;;;;5040091;28;20252;-67
2022/06/18 00:30:44;;;;;;;0.00;0.00;;;18.90;1.00;;;;;;5041329;28;20731;-67
2022/06/18 00:33:12;;;;;;;0.00;0.00;;;18.80;1.00;;;;;;5041687;28;20203;-67
2022/06/18 00:35:42;;;;;;;0.00;0.00;;;18.70;1.00;;;;;;5045969;28;20227;-67
2022/06/18 00:38:22;;;;;;;0.00;0.00;;;18.60;1.00;;;;;;5045941;28;20223;-67
2022/06/18 00:40:50;;;;;;;0.00;0.00;;;18.60;1.00;;;;;;5062281;28;20205;-67
2022/06/18 00:43:23;;;;;;;0.00;0.00;;;18.60;1.00;;;;;;5057792;28;20542;-67
2022/06/18 00:45:53;;;;;;;0.00;0.00;;;18.60;1.00;;;;;;5050312;28;20300;-67
2022/06/18 00:48:28;;;;;;;0.00;0.00;;;18.60;1.00;;;;;;5056322;28;20277;-67
2022/06/18 00:51:01;;;;;;;0.00;0.00;;;18.60;1.00;;;;;;5040670;28;20697;-67
2022/06/18 00:53:35;;;;;;;0.00;0.00;;;18.60;99.90;;;;;;5050200;28;20195;-67
2022/06/18 00:56:07;;;;;;;0.00;0.00;;;18.70;99.90;;;;;;5069226;22;20229;-68
2022/06/18 00:58:38;;;;;;;0.00;0.00;;;18.70;1.40;;;;;;5056520;28;20224;-68
2022/06/18 01:01:13;;;;;;;0.00;0.00;;;18.70;1.00;;;;;;5065283;28;20198;-68
2022/06/18 01:03:43;;;;;;;0.00;0.00;;;18.70;40.10;;;;;;5061978;28;20249;-68
2022/06/18 01:06:15;;;;;;;0.00;0.00;;;18.70;1.00;;;;;;5076768;28;20219;-67
2022/06/18 01:08:46;;;;;;;0.00;0.00;;;18.70;99.90;;;;;;5057281;28;20202;-68
2022/06/18 01:11:20;;;;;;;0.00;0.00;;;18.70;99.90;;;;;;5045947;28;20250;-68
2022/06/18 01:13:49;;;;;;;0.00;0.00;;;18.70;99.90;;;;;;5047311;28;20203;-68
2022/06/18 01:16:19;;;;;;;0.00;0.00;;;18.80;99.90;;;;;;5037413;28;20601;-68
2022/06/18 01:18:49;;;;;;;0.00;0.00;;;18.70;99.90;;;;;;5037080;28;20219;-68
2022/06/18 01:21:26;;;;;;;0.00;0.00;;;18.70;1.00;;;;;;5045798;28;20200;-67
2022/06/18 01:24:02;;;;;;;0.00;0.00;;;18.70;1.00;;;;;;5033443;28;20223;-67
2022/06/18 01:26:33;;;;;;;0.00;0.00;;;18.40;1.00;;;;;;5038537;28;20283;-68
2022/06/18 01:29:01;;;;;;;0.00;0.00;;;18.40;1.00;;;;;;5054406;28;20194;-68
2022/06/18 01:31:31;;;;;;;0.00;0.00;;;18.50;1.00;;;;;;5044547;28;20252;-68
2022/06/18 01:33:59;;;;;;;0.00;0.00;;;18.50;1.00;;;;;;5051085;28;20192;-68
2022/06/18 01:36:33;;;;;;;0.08;0.08;;;18.40;1.00;;;;;;5035422;28;20689;-68
2022/06/18 01:39:04;;;;;;;0.00;0.00;;;18.40;99.90;;;;;;5032055;28;20227;-68
2022/06/18 01:41:50;;;;;;;0.00;0.00;;;18.30;99.90;;;;;;5030330;28;20195;-68
2022/06/18 01:44:39;;;;;;;0.00;0.00;;;18.20;99.90;;;;;;5042561;28;20224;-68
2022/06/18 01:47:11;;;;;;;0.00;0.00;;;18.10;99.90;;;;;;5045645;28;20268;-68
2022/06/18 01:49:47;;;;;;;0.00;0.00;;;18.00;99.90;;;;;;5035989;28;20235;-68
2022/06/18 01:52:21;;;;;;;0.00;0.00;;;18.00;99.90;;;;;;5016610;28;20297;-67
2022/06/18 01:55:00;;;;;;;0.10;0.10;;;18.00;99.90;;;;;;5031784;28;20300;-67
2022/06/18 01:57:34;;;;;;;0.00;0.00;;;17.90;99.90;;;;;;5030801;28;20241;-70
2022/06/18 02:00:12;;;;;;;0.00;0.00;;;18.00;77.90;;;;;;5031679;28;20209;-68
2022/06/18 02:02:49;;;;;;;0.00;0.00;;;18.00;99.90;;;;;;5030803;28;20207;-68
2022/06/18 02:05:20;;;;;;;0.00;0.00;;;18.00;99.90;;;;;;5029875;28;20199;-68
2022/06/18 02:07:50;;;;;;;0.00;0.00;;;17.90;99.90;;;;;;5031328;28;20199;-68
2022/06/18 02:10:21;;;;;;;0.00;0.00;;;17.90;99.90;;;;;;5033153;28;20662;-68
2022/06/18 02:12:51;;;;;;;0.00;0.00;;;17.90;99.90;;;;;;5049402;28;20213;-68
2022/06/18 02:15:23;;;;;;;0.00;0.00;;;17.90;99.90;;;;;;5032835;28;20890;-68
2022/06/18 02:17:51;;;;;;;0.00;0.00;;;17.90;99.90;;;;;;5030959;28;20215;-68
2022/06/18 02:20:26;;;;;;;0.00;0.00;;;17.80;99.90;;;;;;5031653;28;20221;-68
2022/06/18 02:22:56;;;;;;;0.00;0.00;;;17.90;99.90;;;;;;5031027;28;20204;-68
2022/06/18 02:25:27;;;;;;;0.00;0.00;;;17.90;99.90;;;;;;5031464;28;20199;-68
2022/06/18 02:27:58;;;;;;;0.00;0.00;;;17.90;99.90;;;;;;5032026;28;20833;-68
2022/06/18 02:30:29;;;;;;;0.00;0.00;;;18.00;99.90;;;;;;5050640;28;20207;-70
2022/06/18 02:33:00;;;;;;;0.00;0.00;;;17.90;99.90;;;;;;5031439;28;20226;-68
2022/06/18 02:35:30;;;;;;;0.00;0.00;;;18.00;99.90;;;;;;5030352;28;20207;-68
2022/06/18 02:37:58;;;;;;;0.00;0.00;;;18.00;99.90;;;;;;5031422;28;20219;-68
2022/06/18 02:40:30;;;;;;;0.00;0.00;;;18.00;99.90;;;;;;5031795;28;20573;-67
2022/06/18 02:43:01;;;;;;;0.00;0.00;;;18.00;99.90;;;;;;5033070;28;20226;-70
2022/06/18 02:45:31;;;;;;;0.00;0.00;;;18.10;99.90;;;;;;5029658;28;20214;-68
2022/06/18 02:48:01;;;;;;;0.00;0.00;;;18.00;99.90;;;;;;5029275;28;20640;-68
2022/06/18 02:50:34;;;;;;;0.00;0.00;;;17.90;99.90;;;;;;5030843;28;20218;-68
2022/06/18 02:53:03;;;;;;;0.00;0.00;;;17.90;99.90;;;;;;5031628;28;20223;-68
2022/06/18 02:55:36;;;;;;;0.00;0.00;;;17.80;99.90;;;;;;5029562;28;20221;-68
2022/06/18 02:58:08;;;;;;;0.00;0.00;;;17.70;99.20;;;;;;5034844;28;20219;-68
2022/06/18 03:00:39;;;;;;;0.00;0.00;;;17.70;99.90;;;;;;5033425;28;20221;-68
2022/06/18 03:03:08;;;;;;;0.00;0.00;;;17.60;99.90;;;;;;5032865;28;20546;-68
2022/06/18 03:05:36;;;;;;;0.00;0.00;;;17.60;91.30;;;;;;5032060;28;20219;-68
2022/06/18 03:08:05;;;;;;;0.00;0.00;;;17.60;15.70;;;;;;5029492;28;20210;-68
2022/06/18 03:13:22;;;;;;;0.00;0.00;;;17.50;9.10;;;;;;5028981;28;20254;-68
2022/06/18 03:15:56;;;;;;;0.00;0.00;;;17.50;89.60;;;;;;5028772;28;20698;-68
2022/06/18 03:18:29;;;;;;;0.00;0.00;;;17.50;99.90;;;;;;5029423;28;20219;-68
2022/06/18 03:21:03;;;;;;;0.00;0.00;;;17.40;99.90;;;;;;5030862;28;20213;-68
2022/06/18 03:23:31;;;;;;;0.00;0.00;;;17.50;99.90;;;;;;5029334;28;20206;-68
2022/06/18 03:25:59;;;;;;;0.00;0.00;;;17.60;1.00;;;;;;5029214;28;20257;-67
2022/06/18 03:28:30;;;;;;;0.00;0.00;;;17.60;99.90;;;;;;5029107;28;20621;-68
2022/06/18 03:30:58;;;;;;;0.00;0.00;;;17.60;99.90;;;;;;5031539;28;20202;-67
2022/06/18 03:33:26;;;;;;;0.00;0.00;;;17.60;99.90;;;;;;5029905;28;20614;-68
2022/06/18 03:35:55;;;;;;;0.00;0.00;;;17.60;99.90;;;;;;5031515;28;20300;-71
2022/06/18 03:38:25;;;;;;;0.00;0.00;;;17.70;99.90;;;;;;5030368;28;20407;-69
2022/06/18 03:40:55;;;;;;;0.00;0.00;;;17.70;48.90;;;;;;5032137;28;20569;-69
2022/06/18 03:43:26;;;;;;;0.00;0.00;;;17.50;8.90;;;;;;5030549;28;20547;-69
2022/06/18 03:46:00;;;;;;;0.00;0.00;;;17.50;1.00;;;;;;5029816;28;20250;-69
2022/06/18 03:48:32;;;;;;;0.03;0.03;;;17.40;1.00;;;;;;5029734;28;20661;-67
2022/06/18 03:51:00;;;;;;;0.00;0.00;;;17.30;99.90;;;;;;5032061;28;20632;-70
2022/06/18 03:53:28;;;;;;;0.00;0.00;;;17.20;99.90;;;;;;5030325;28;20211;-67
2022/06/18 03:55:58;;;;;;;0.00;0.00;;;17.10;99.90;;;;;;5027747;28;20637;-68
2022/06/18 03:58:27;;;;;;;0.00;0.00;;;17.10;99.90;;;;;;5027137;28;20656;-69
2022/06/18 04:00:56;;;;;;;0.00;0.00;;;17.20;99.90;;;;;;5030991;28;20191;-68
2022/06/18 04:03:24;;;;;;;0.00;0.00;;;17.10;99.90;;;;;;5031053;28;20234;-69
2022/06/18 04:05:53;;;;;;;0.00;0.00;;;17.20;99.90;;;;;;5036284;28;20309;-69
2022/06/18 04:08:21;;;;;;;0.00;0.00;;;17.30;99.90;;;;;;5029366;28;20670;-69
2022/06/18 04:11:01;;;;;;;0.00;0.00;;;17.40;99.90;;;;;;5041020;28;20222;-69
2022/06/18 04:13:30;;;;;;;0.00;0.00;;;17.40;99.90;;;;;;5034757;28;20249;-69
2022/06/18 04:16:14;;;;;;;0.00;0.00;;;17.50;99.90;;;;;;5034708;28;20218;-69
2022/06/18 04:18:43;;;;;;;0.00;0.00;;;17.50;99.90;;;;;;5033187;28;20314;-69
2022/06/18 04:21:15;;;;;;;0.00;0.00;;;17.50;99.90;;;;;;5033004;28;20203;-68
2022/06/18 04:23:43;;;;;;;0.00;0.00;;;17.50;99.90;;;;;;5033167;28;20675;-69
2022/06/18 04:26:12;;;;;;;0.10;0.10;;;17.60;99.90;;;;;;5033878;28;20215;-69
2022/06/18 04:28:46;;;;;;;0.00;0.00;;;17.80;99.90;;;;;;5032307;28;20195;-69
2022/06/18 04:31:18;;;;;;;0.00;0.00;;;17.90;99.90;;;;;;5032315;28;20203;-69
2022/06/18 04:33:47;;;;;;;0.00;0.00;;;17.80;50.50;;;;;;5033482;28;20230;-70
2022/06/18 04:36:31;;;;;;;0.00;0.00;;;17.90;97.30;;;;;;5032528;28;20214;-69
2022/06/18 04:39:02;;;;;;;0.00;0.00;;;17.80;99.90;;;;;;5032723;28;20215;-69
2022/06/18 04:41:44;;;;;;;0.00;0.00;;;17.80;99.90;;;;;;5032874;28;20762;-69
2022/06/18 04:44:16;;;;;;;0.00;0.00;;;17.70;99.90;;;;;;5033204;28;20666;-69
2022/06/18 04:46:53;;;;;;;0.00;0.00;;;17.80;99.90;;;;;;5034148;28;20261;-72
2022/06/18 04:49:21;;;;;;;0.00;0.00;;;17.80;99.90;;;;;;5031855;28;20219;-70
2022/06/18 04:51:49;;;;;;;0.00;0.00;;;17.90;99.90;;;;;;5032584;28;20241;-70
2022/06/18 04:54:27;;;;;;;0.00;0.00;;;17.90;99.90;;;;;;5031563;28;20221;-70
2022/06/18 04:56:55;;;;;;;0.00;0.00;;;18.10;99.90;;;;;;5032653;28;20234;-69
2022/06/18 04:59:29;;;;;;;0.00;0.00;;;18.10;1.00;;;;;;5032500;28;20256;-69
2022/06/18 05:02:05;;;;;;;0.00;0.00;;;18.20;1.00;;;;;;5032905;28;20201;-70
2022/06/18 05:04:49;;;;;;;0.00;0.00;;;18.20;1.00;;;;;;5034002;28;20207;-69
2022/06/18 05:07:37;;;;;;;0.00;0.00;;;18.40;1.00;;;;;;5031821;28;20229;-69
2022/06/18 05:10:24;;;;;;;0.00;0.00;;;18.50;1.00;;;;;;5033564;28;20565;-68
2022/06/18 05:13:13;;;;;;;0.00;0.00;;;18.70;1.00;;;;;;5031894;28;20747;-69
2022/06/18 05:15:46;;;;;;;0.00;0.00;;;18.80;1.00;;;;;;5030477;28;20219;-69
2022/06/18 05:18:18;;;;;;;0.00;0.00;;;18.90;99.90;;;;;;5032326;28;20195;-69
2022/06/18 05:20:52;;;;;;;0.00;0.00;;;19.00;99.90;;;;;;5032984;28;20608;-70
2022/06/18 05:23:23;;;;;;;0.00;0.00;;;19.20;99.90;;;;;;5036041;28;20325;-69
2022/06/18 05:25:56;;;;;;;0.00;0.00;;;19.30;99.90;;;;;;5043110;28;20245;-70
2022/06/18 05:28:24;;;;;;;0.00;0.00;;;19.50;99.90;;;;;;5012908;28;20207;-70
2022/06/18 05:30:52;;;;;;;0.00;0.00;;;19.60;99.90;;;;;;5013604;28;20274;-69
2022/06/18 05:33:23;;;;;;;0.00;0.00;;;19.70;99.90;;;;;;5030810;28;20209;-69
2022/06/18 05:35:54;;;;;;;0.00;0.00;;;19.80;99.90;;;;;;5031379;28;20215;-69
2022/06/18 05:38:24;;;;;;;0.00;0.00;;;19.90;99.90;;;;;;5031078;28;20207;-70
2022/06/18 05:40:55;;;;;;;0.00;0.00;;;20.00;99.90;;;;;;5031305;28;20211;-70
2022/06/18 05:43:23;;;;;;;0.00;0.00;;;20.20;99.90;;;;;;5031524;28;20254;-69
2022/06/18 05:45:53;;;;;;;0.00;0.00;;;20.30;99.90;;;;;;5031061;28;20229;-70
2022/06/18 05:48:22;;;;;;;0.00;0.00;;;20.40;92.50;;;;;;5030837;28;20272;-70
2022/06/18 05:50:51;;;;;;;0.00;0.00;;;20.60;75.90;;;;;;5047586;28;20213;-70
2022/06/18 05:53:20;;;;;;;0.00;0.00;;;20.70;53.00;;;;;;5030391;28;20674;-69
2022/06/18 05:56:14;;;;;;;0.00;0.00;;;20.80;33.90;;;;;;5030651;28;20231;-69
2022/06/18 05:58:51;;;;;;;0.00;0.00;;;20.90;21.80;;;;;;5030776;28;20629;-69
2022/06/18 06:01:26;;;;;;;0.00;0.00;;;21.10;11.10;;;;;;5030911;28;20226;-69
2022/06/18 06:04:02;;;;;;;0.00;0.00;;;21.20;4.20;;;;;;5031163;28;20234;-70
2022/06/18 06:06:30;;;;;;;0.00;0.00;;;21.30;1.00;;;;;;5031874;28;20227;-69
2022/06/18 06:08:58;;;;;;;0.00;0.00;;;21.50;1.00;;;;;;5030146;28;20203;-69
2022/06/18 06:11:32;;;;;;;0.00;0.00;;;21.60;1.00;;;;;;5030360;28;20199;-69
2022/06/18 06:14:06;;;;;;;0.00;0.00;;;21.60;1.00;;;;;;5029048;28;20202;-69
2022/06/18 06:16:34;;;;;;;0.00;0.00;;;21.80;1.00;;;;;;5030559;28;20258;-69
2022/06/18 06:19:04;;;;;;;0.00;0.00;;;21.90;1.00;;;;;;5032151;28;20222;-69
2022/06/18 06:21:32;;;;;;;0.00;0.00;;;22.10;1.00;;;;;;5032096;28;20325;-69
2022/06/18 06:24:00;;;;;;;0.00;0.00;;;22.20;1.00;;;;;;5031901;28;21159;-69
2022/06/18 06:26:33;;;;;;;0.00;0.00;;;22.40;1.00;;;;;;5031991;28;20219;-69
2022/06/18 06:29:01;;;;;;;0.00;0.00;;;22.50;1.00;;;;;;5028899;28;20252;-70
2022/06/18 06:31:29;;;;;;;0.00;0.00;;;22.60;1.00;;;;;;5031718;28;20253;-70
2022/06/18 06:33:57;;;;;;;0.00;0.00;;;22.80;1.00;;;;;;5034916;28;20203;-69
2022/06/18 06:36:26;;;;;;;0.00;0.00;;;22.90;1.00;;;;;;5036994;28;20241;-69
2022/06/18 06:39:01;;;;;;;0.00;0.00;;;23.10;1.00;;;;;;5052469;28;20190;-70
2022/06/18 06:41:30;;;;;;;0.00;0.00;;;23.30;1.00;;;;;;5052310;28;20271;-69
2022/06/18 06:43:57;;;;;;;0.00;0.00;;;23.50;1.00;;;;;;5051963;28;20208;-69
2022/06/18 06:46:31;;;;;;;0.00;0.00;;;23.70;1.00;;;;;;5050658;28;20651;-70
2022/06/18 06:48:59;;;;;;;0.00;0.00;;;23.90;1.00;;;;;;5039396;28;20231;-69
2022/06/18 06:51:30;;;;;;;0.00;0.00;;;24.10;1.00;;;;;;5031405;28;20187;-70
2022/06/18 06:54:06;;;;;;;0.00;0.00;;;24.30;1.00;;;;;;5026833;28;20625;-70
2022/06/18 06:59:20;;;;;;;0.00;0.00;;;24.50;1.00;;;;;;5052190;28;20547;-70
2022/06/18 07:01:48;;;;;;;0.00;0.00;;;24.70;1.00;;;;;;5052191;28;20277;-72
2022/06/18 07:04:16;;;;;;;0.00;0.00;;;24.80;1.00;;;;;;5059782;28;20221;-68
2022/06/18 07:06:45;;;;;;;0.00;0.00;;;24.90;1.00;;;;;;5071834;28;20228;-68
2022/06/18 07:09:12;;;;;;;0.00;0.00;;;25.20;1.00;;;;;;5069260;28;20202;-68
2022/06/18 07:11:40;;;;;;;0.00;0.00;;;25.30;1.00;;;;;;5071350;28;20198;-68
2022/06/18 07:14:08;;;;;;;0.00;0.00;;;25.50;1.00;;;;;;5068498;28;20251;-68
2022/06/18 07:16:37;;;;;;;0.00;0.00;;;25.50;1.00;;;;;;5070864;28;20310;-69
2022/06/18 07:19:05;;;;;;;0.00;0.00;;;25.70;1.00;;;;;;5070112;28;20261;-69
2022/06/18 07:21:34;;;;;;;0.00;0.00;;;25.80;1.00;;;;;;5069948;28;20221;-69
2022/06/18 07:24:04;;;;;;;0.00;0.00;;;25.80;1.00;;;;;;5069981;28;20197;-69
2022/06/18 07:26:32;;;;;;;0.00;0.00;;;25.90;1.00;;;;;;5068767;28;20235;-69
2022/06/18 07:29:00;;;;;;;0.00;0.00;;;26.10;1.00;;;;;;5070365;28;20249;-69
2022/06/18 07:31:30;;;;;;;0.00;0.00;;;26.20;1.00;;;;;;5070002;28;20198;-69
2022/06/18 07:33:59;;;;;;;0.00;0.00;;;26.40;1.00;;;;;;5069452;28;20206;-70
2022/06/18 07:36:27;;;;;;;0.00;0.00;;;26.50;1.00;;;;;;5069677;28;20222;-70
2022/06/18 07:38:55;;;;;;;0.00;0.00;;;26.60;1.00;;;;;;5069971;28;20205;-68
2022/06/18 07:41:31;;;;;;;0.00;0.00;;;26.60;1.00;;;;;;5069571;28;20259;-68
2022/06/18 07:43:59;;;;;;;0.00;0.00;;;26.70;1.00;;;;;;5070195;28;20567;-69
2022/06/18 07:46:27;;;;;;;0.00;0.00;;;26.80;1.00;;;;;;5069712;28;20738;-67
2022/06/18 07:48:55;;;;;;;0.00;0.00;;;27.00;1.00;;;;;;5069460;28;20426;-70
2022/06/18 07:51:24;;;;;;;0.00;0.00;;;27.20;1.00;;;;;;5069988;28;20527;-68
2022/06/18 07:53:52;;;;;;;0.00;0.00;;;27.40;1.00;;;;;;5067623;28;20258;-68
2022/06/18 07:56:20;;;;;;;0.00;0.00;;;27.50;1.00;;;;;;5068683;28;20225;-68
2022/06/18 07:58:50;;;;;;;0.00;0.00;;;27.60;1.00;;;;;;5069634;28;20586;-69
2022/06/18 08:01:18;;;;;;;0.00;0.00;;;27.80;1.00;;;;;;5069406;28;20637;-71
2022/06/18 08:03:46;;;;;;;0.00;0.00;;;27.90;1.00;;;;;;5068978;28;20631;-68
2022/06/18 08:06:14;;;;;;;0.00;0.00;;;28.00;1.00;;;;;;5069414;28;20249;-68
2022/06/18 08:08:42;;;;;;;0.00;0.00;;;28.00;1.00;;;;;;5069080;28;20201;-68
2022/06/18 08:11:12;;;;;;;0.00;0.00;;;28.30;1.00;;;;;;5068581;28;20197;-67
2022/06/18 08:13:40;;;;;;;0.00;0.00;;;28.40;1.00;;;;;;5069888;28;20214;-68
2022/06/18 08:16:12;;;;;;;0.00;0.00;;;28.20;1.00;;;;;;5069181;28;20659;-67
2022/06/18 08:18:41;;;;;;;0.00;0.00;;;28.40;1.00;;;;;;5057486;28;20213;-68
2022/06/18 08:21:15;;;;;;;0.00;0.00;;;28.40;1.00;;;;;;5058962;28;20308;-68
2022/06/18 08:23:43;;;;;;;0.00;0.00;;;28.60;1.00;;;;;;5069427;28;20733;-69
2022/06/18 08:26:12;;;;;;;0.00;0.00;;;28.60;1.00;;;;;;5070666;28;20213;-70
2022/06/18 08:28:41;;;;;;;0.00;0.00;;;28.80;1.00;;;;;;5070969;28;20680;-68
2022/06/18 08:31:10;;;;;;;0.00;0.00;;;28.90;1.00;;;;;;5070972;28;20202;-67
2022/06/18 08:33:39;;;;;;;0.00;0.00;;;29.00;1.00;;;;;;5068463;28;20672;-67
2022/06/18 08:36:09;;;;;;;0.00;0.00;;;29.00;1.00;;;;;;5069350;28;20236;-67
2022/06/18 08:38:39;;;;;;;0.00;0.00;;;28.90;1.00;;;;;;5069460;28;20578;-67
2022/06/18 08:41:22;;;;;;;0.00;0.00;;;29.00;1.00;;;;;;5069861;28;20220;-67
2022/06/18 08:44:12;;;;;;;0.00;0.00;;;29.10;1.00;;;;;;5069015;28;20202;-67
2022/06/18 08:46:51;;;;;;;0.00;0.00;;;29.30;1.00;;;;;;5067387;28;20720;-68
2022/06/18 08:49:34;;;;;;;0.00;0.00;;;29.30;1.00;;;;;;5068807;28;20201;-68
2022/06/18 08:52:17;;;;;;;0.00;0.00;;;29.30;1.00;;;;;;5069351;28;20227;-66
2022/06/18 08:54:56;;;;;;;0.00;0.00;;;29.20;1.00;;;;;;5084362;28;20331;-66
2022/06/18 08:57:33;;;;;;;0.00;0.00;;;29.30;1.00;;;;;;5071701;28;20236;-68
2022/06/18 09:00:06;;;;;;;0.00;0.00;;;29.30;1.00;;;;;;5073032;28;20197;-67
2022/06/18 09:02:42;;;;;;;0.00;0.00;;;29.20;1.00;;;;;;5070556;28;20221;-67
2022/06/18 09:05:39;;;;;;;0.00;0.00;;;29.20;1.00;;;;;;5068894;28;20239;-67
2022/06/18 09:08:48;;;;;;;0.00;0.00;;;29.40;1.00;;;;;;5068743;28;20272;-67
2022/06/18 09:11:54;;;;;;;0.00;0.00;;;29.60;1.00;;;;;;5069913;28;20605;-67
2022/06/18 09:14:28;;;;;;;0.00;0.00;;;30.00;1.00;;;;;;5066831;28;20410;-67
2022/06/18 09:17:04;;;;;;;0.00;0.00;;;30.20;1.00;;;;;;5070939;28;20213;-67
2022/06/18 09:19:36;;;;;;;0.00;0.00;;;30.20;1.00;;;;;;5072473;28;20197;-67
2022/06/18 09:22:10;;;;;;;0.00;0.00;;;30.10;1.00;;;;;;5071533;28;20222;-66
2022/06/18 09:24:41;;;;;;;0.00;0.00;;;30.20;1.00;;;;;;5070772;28;20197;-67
2022/06/18 09:27:15;;;;;;;0.00;0.00;;;30.20;1.00;;;;;;5069464;28;20229;-67
2022/06/18 09:29:47;;;;;;;0.00;0.00;;;30.50;1.00;;;;;;5072370;28;20201;-67
2022/06/18 09:32:23;;;;;;;0.00;0.00;;;30.60;1.00;;;;;;5069882;28;20197;-67
2022/06/18 09:34:59;;;;;;;0.00;0.00;;;30.50;1.00;;;;;;5072591;28;20243;-67
2022/06/18 09:37:34;;;;;;;0.00;0.00;;;30.80;1.00;;;;;;5072657;28;20278;-67
2022/06/18 09:40:04;;;;;;;0.00;0.00;;;30.70;1.00;;;;;;5072840;28;20553;-67
2022/06/18 09:42:37;;;;;;;0.00;0.00;;;30.60;1.00;;;;;;5073398;28;20225;-67
2022/06/18 09:45:10;;;;;;;0.00;0.00;;;30.80;1.00;;;;;;5072563;28;20194;-67
2022/06/18 09:47:41;;;;;;;0.00;0.00;;;30.80;1.00;;;;;;5072432;28;20305;-67
2022/06/18 09:50:22;;;;;;;0.00;0.00;;;30.90;1.00;;;;;;5070667;28;20197;-67
2022/06/18 09:52:57;;;;;;;0.00;0.00;;;30.90;1.00;;;;;;5071986;28;20198;-67
2022/06/18 09:55:34;;;;;;;0.00;0.00;;;31.10;1.00;;;;;;5071171;28;20667;-67
2022/06/18 09:58:08;;;;;;;0.00;0.00;;;31.00;1.00;;;;;;5071277;28;20216;-67
2022/06/18 10:00:36;;;;;;;0.00;0.00;;;31.30;1.00;;;;;;5071430;28;20262;-67
2022/06/18 10:03:08;;;;;;;0.00;0.00;;;31.20;1.00;;;;;;5071041;28;20583;-67
2022/06/18 10:08:32;;;;;;;0.00;0.00;;;31.30;1.00;;;;;;5070887;28;20209;-67
2022/06/18 10:11:08;;;;;;;0.00;0.00;;;31.30;1.00;;;;;;5071145;28;20201;-67
2022/06/18 10:13:40;;;;;;;0.00;0.00;;;31.40;1.00;;;;;;5071893;28;20200;-67
2022/06/18 10:16:14;;;;;;;0.00;0.00;;;31.20;1.00;;;;;;5070864;28;20213;-67
2022/06/18 10:18:52;;;;;;;0.00;0.00;;;31.50;1.00;;;;;;5071663;28;20244;-67
2022/06/18 10:21:29;;;;;;;0.00;0.00;;;31.50;1.00;;;;;;5071244;28;20205;-67
2022/06/18 10:24:03;;;;;;;0.00;0.00;;;31.50;1.00;;;;;;5071655;28;20224;-67
2022/06/18 10:26:38;;;;;;;0.00;0.00;;;31.60;1.00;;;;;;5070871;28;20213;-67
2022/06/18 10:29:17;;;;;;;0.00;0.00;;;31.90;1.00;;;;;;5070943;28;20672;-67
2022/06/18 10:31:57;;;;;;;0.00;0.00;;;32.10;1.00;;;;;;5070890;28;20243;-67
2022/06/18 10:34:36;;;;;;;0.00;0.00;;;32.10;1.00;;;;;;5070957;28;20668;-67
2022/06/18 10:37:16;;;;;;;0.00;0.00;;;32.10;1.00;;;;;;5070743;28;20228;-67
2022/06/18 10:40:15;;;;;;;0.00;0.00;;;32.10;1.00;;;;;;5069772;28;20260;-67
2022/06/18 10:42:57;;;;;;;0.00;0.00;;;32.30;1.00;;;;;;5070970;28;20221;-67
2022/06/18 10:45:35;;;;;;;0.00;0.00;;;32.30;1.00;;;;;;5070052;28;20212;-67
2022/06/18 10:48:09;;;;;;;0.00;0.00;;;32.40;1.00;;;;;;5071152;28;20205;-67
2022/06/18 10:50:43;;;;;;;0.00;0.00;;;32.60;1.00;;;;;;5071234;28;20209;-67
2022/06/18 10:53:15;;;;;;;0.00;0.00;;;32.50;1.00;;;;;;5072300;28;20197;-67
2022/06/18 10:55:44;;;;;;;0.00;0.00;;;32.60;1.00;;;;;;5072119;28;20676;-67
2022/06/18 10:58:14;;;;;;;0.00;0.00;;;32.90;1.00;;;;;;5071797;28;20197;-67
2022/06/18 11:00:55;;;;;;;0.00;0.00;;;33.00;1.00;;;;;;5071913;28;20690;-67
2022/06/18 11:03:28;;;;;;;0.00;0.00;;;33.20;1.00;;;;;;5071794;28;20639;-67
2022/06/18 11:05:57;;;;;;;0.00;0.00;;;33.20;1.00;;;;;;5070279;28;20395;-67
2022/06/18 11:08:30;;;;;;;0.00;0.00;;;32.90;1.00;;;;;;5070084;28;20216;-67
2022/06/18 11:11:01;;;;;;;0.00;0.00;;;33.20;1.00;;;;;;5070839;28;20592;-67
2022/06/18 11:13:32;;;;;;;0.00;0.00;;;33.20;1.00;;;;;;5070069;28;20197;-67
2022/06/18 11:16:06;;;;;;;0.00;0.00;;;33.20;1.00;;;;;;5070614;28;20217;-67
2022/06/18 11:18:44;;;;;;;0.00;0.00;;;33.20;1.00;;;;;;5069320;28;20201;-67
2022/06/18 11:21:17;;;;;;;0.00;0.00;;;33.20;1.00;;;;;;5070705;28;20204;-68
2022/06/18 11:23:51;;;;;;;0.00;0.00;;;33.40;1.00;;;;;;5070144;28;20768;-67
2022/06/18 11:26:39;;;;;;;0.00;0.00;;;33.60;1.00;;;;;;5071867;28;20585;-68
2022/06/18 11:29:14;;;;;;;0.00;0.00;;;33.80;1.00;;;;;;5072306;28;20193;-67
2022/06/18 11:31:46;;;;;;;0.00;0.00;;;33.90;1.00;;;;;;5076993;28;20639;-67
2022/06/18 11:34:21;;;;;;;0.00;0.00;;;34.00;1.00;;;;;;5074243;28;20192;-67
2022/06/18 11:36:52;;;;;;;0.00;0.00;;;34.00;1.00;;;;;;5072656;28;20288;-67
2022/06/18 11:39:28;;;;;;;0.00;0.00;;;33.90;1.00;;;;;;5070532;28;20258;-67
2022/06/18 11:42:00;;;;;;;0.00;0.00;;;33.70;1.00;;;;;;5069999;28;20741;-67
2022/06/18 11:44:33;;;;;;;0.00;0.00;;;33.60;1.00;;;;;;5070512;28;20232;-68
2022/06/18 11:47:09;;;;;;;0.00;0.00;;;33.70;1.00;;;;;;5084827;28;20224;-67
2022/06/18 11:49:43;;;;;;;0.00;0.00;;;34.00;1.00;;;;;;5068226;28;20694;-67
2022/06/18 11:52:18;;;;;;;0.00;0.00;;;34.10;1.00;;;;;;5070277;28;20254;-67
2022/06/18 11:54:59;;;;;;;0.00;0.00;;;34.10;1.00;;;;;;5071846;28;20714;-67
2022/06/18 11:57:34;;;;;;;0.00;0.00;;;33.80;1.00;;;;;;5070703;28;20639;-67
2022/06/18 12:00:07;;;;;;;0.00;0.00;;;33.90;1.00;;;;;;5071223;28;20552;-67
2022/06/18 12:02:45;;;;;;;0.00;0.00;;;34.20;1.00;;;;;;5070679;28;20230;-67
2022/06/18 12:05:18;;;;;;;0.00;0.00;;;34.50;1.00;;;;;;5071780;28;20201;-67
2022/06/18 12:07:51;;;;;;;0.00;0.00;;;34.70;1.00;;;;;;5072720;28;20308;-67
2022/06/18 12:10:35;;;;;;;0.00;0.00;;;35.00;1.00;;;;;;5072074;28;20205;-67
2022/06/18 12:13:13;;;;;;;0.00;0.00;;;35.20;1.00;;;;;;5071992;28;20200;-67
2022/06/18 12:15:45;;;;;;;0.00;0.00;;;35.20;1.00;;;;;;5069066;28;20212;-68
2022/06/18 12:18:18;;;;;;;0.00;0.00;;;35.40;1.00;;;;;;5069480;28;20660;-68
2022/06/18 12:20:59;;;;;;;0.00;0.00;;;35.60;1.00;;;;;;5070087;28;20201;-68
2022/06/18 12:23:35;;;;;;;0.00;0.00;;;35.60;1.00;;;;;;5069660;28;20235;-68
2022/06/18 12:26:09;;;;;;;0.00;0.00;;;35.40;1.00;;;;;;5069920;28;20273;-68
2022/06/18 12:28:47;;;;;;;0.00;0.00;;;35.60;1.00;;;;;;5069327;28;20675;-68
2022/06/18 12:31:20;;;;;;;0.00;0.00;;;35.80;1.00;;;;;;5073064;28;20196;-68
2022/06/18 12:33:56;;;;;;;0.00;0.00;;;35.50;1.00;;;;;;5073581;28;20232;-68
2022/06/18 12:36:32;;;;;;;0.00;0.00;;;35.60;1.00;;;;;;5073203;28;20699;-67
2022/06/18 12:39:04;;;;;;;0.00;0.00;;;35.40;1.00;;;;;;5073559;28;20204;-68
2022/06/18 12:41:42;;;;;;;0.00;0.00;;;35.20;1.00;;;;;;5072180;28;20208;-68
2022/06/18 12:44:25;;;;;;;0.00;0.00;;;35.40;1.00;;;;;;5073334;28;20772;-67
2022/06/18 12:47:01;;;;;;;0.00;0.00;;;35.00;1.00;;;;;;5073084;28;20308;-68
2022/06/18 12:49:37;;;;;;;0.00;0.00;;;34.80;1.00;;;;;;5073146;28;20205;-68
2022/06/18 12:52:12;;;;;;;0.00;0.00;;;34.70;1.00;;;;;;5073412;28;20196;-67
2022/06/18 12:54:56;;;;;;;0.00;0.00;;;34.70;1.00;;;;;;5073449;28;20684;-67
2022/06/18 12:57:32;;;;;;;0.00;0.00;;;34.90;1.00;;;;;;5073397;28;20236;-67
2022/06/18 13:00:07;;;;;;;0.00;0.00;;;34.80;1.00;;;;;;5073731;28;20208;-67
2022/06/18 13:02:58;;;;;;;0.00;0.00;;;35.10;1.00;;;;;;5072266;28;20204;-67
2022/06/18 13:05:40;;;;;;;0.00;0.00;;;35.40;1.00;;;;;;5070165;28;20224;-67
2022/06/18 13:08:27;;;;;;;0.00;0.00;;;35.60;1.00;;;;;;5073005;28;20216;-67
2022/06/18 13:11:04;;;;;;;0.00;0.00;;;35.30;1.00;;;;;;5073139;28;20205;-67
2022/06/18 13:13:42;;;;;;;0.00;0.00;;;35.30;1.00;;;;;;5072655;28;20201;-67
2022/06/18 13:16:14;;;;;;;0.00;0.00;;;35.40;1.00;;;;;;5072606;28;20226;-67
2022/06/18 13:18:49;;;;;;;0.00;0.00;;;35.20;1.00;;;;;;5072688;28;20550;-67
2022/06/18 13:21:17;;;;;;;0.00;0.00;;;35.40;1.00;;;;;;5072568;28;20613;-67
2022/06/18 13:29:29;;;;;;;0.00;0.00;;;35.30;1.00;;;;;;5072630;28;20599;-67
2022/06/18 13:32:04;;;;;;;0.00;0.00;;;35.30;1.00;;;;;;5072230;28;20271;-67
2022/06/18 13:34:38;;;;;;;0.00;0.00;;;35.00;1.00;;;;;;5073581;28;20226;-67
2022/06/18 13:37:14;;;;;;;0.00;0.00;;;35.10;1.00;;;;;;5071662;28;20334;-67
2022/06/18 13:39:51;;;;;;;0.00;0.00;;;34.60;1.00;;;;;;5071132;28;20616;-67